Omskiy-141 — UGZK — position and weather

sailwx.info

Track history (hours):
 
Tides and Currents Weather Stations Pressure Air Temp Water Temp Dewpoint Dewpoint Depression Visibility Wind Speed Wind Dir Waves Ship Positions

Omskiy-141

Last reported at 2016-Jun-22 02:33 UTC. Time now 2016-Jun-25 05:19 UTC.
Position N 59°47' E 030°42'.

Length 108 m; draft 2.9 m.

Type: Cargo ship. MMSI: 273310600.

Date/timePositionNaut miles runAvg speedWind from/ knotsBaromVisibWave heightAir tempDewpointWater temp
2016-Jun-22 02:33N 59°47' E 030°42'5 5.1
2016-Jun-22 01:33N 59°50' E 030°34'5 4.7
2016-Jun-22 00:33N 59°53' E 030°27'3 3.3
2016-Jun-21 23:33N 59°56' E 030°24'3 3.3
2016-Jun-21 22:33N 59°56' E 030°17'3 3.1
2016-Jun-21 21:32N 59°54' E 030°13'0 0.0
2016-Jun-21 20:32N 59°54' E 030°13'0 0.0
2016-Jun-21 19:32N 59°54' E 030°13'0 0.0
2016-Jun-21 18:33N 59°54' E 030°13'0 0.0
2016-Jun-21 17:33N 59°54' E 030°13'0 0.0
2016-Jun-21 16:33N 59°54' E 030°13'0 0.0
2016-Jun-21 15:33N 59°54' E 030°13'0 0.0
2016-Jun-21 14:33N 59°54' E 030°13'0 0.0
2016-Jun-21 13:33N 59°54' E 030°13'0 0.0
2016-Jun-21 12:30N 59°54' E 030°13'0 0.0
2016-Jun-21 11:33N 59°54' E 030°13'0 0.0
2016-Jun-21 10:33N 59°54' E 030°13'0 0.0
2016-Jun-21 09:33N 59°54' E 030°13'1 1.3
2016-Jun-21 08:33N 59°55' E 030°14'6 6.3
2016-Jun-21 07:33N 59°55' E 030°01'36 2.4
2016-Jun-20 16:33N 60°02' E 028°50'8 7.8
2016-Jun-20 15:33N 60°02' E 028°35'7 7.3
2016-Jun-20 14:33N 60°04' E 028°21'8 7.6
2016-Jun-20 13:33N 60°08' E 028°07'8 7.7
2016-Jun-20 12:33N 60°10' E 027°52'8 7.4
2016-Jun-20 11:32N 60°08' E 027°38'8 7.9
2016-Jun-20 10:32N 60°03' E 027°25'23 7.4
2016-Jun-20 07:28N 59°59' E 026°40'63 8.0
2016-Jun-19 23:33N 59°44' E 024°37'35 7.9
2016-Jun-19 19:06N 59°33' E 023°31'5 8.3
2016-Jun-19 18:27N 59°32' E 023°21'348 7.6
2016-Jun-17 20:25N 55°36' E 015°23'7 7.7
2016-Jun-17 19:33N 55°33' E 015°13'8 7.8
2016-Jun-17 18:33N 55°29' E 015°01'8 7.9
2016-Jun-17 17:33N 55°25' E 014°48'8 8.1
2016-Jun-17 16:33N 55°21' E 014°36'8 8.4
2016-Jun-17 15:33N 55°15' E 014°26'8 8.0
2016-Jun-17 14:33N 55°09' E 014°16'8 7.6
2016-Jun-17 13:33N 55°09' E 014°03'7 7.5
2016-Jun-17 12:33N 55°09' E 013°50'10 7.7
2016-Jun-17 11:17N 55°10' E 013°33'7 7.8
2016-Jun-17 10:22N 55°11' E 013°21'6 7.8
2016-Jun-17 09:33N 55°11' E 013°09'8 7.8
2016-Jun-17 08:33N 55°14' E 012°56'8 7.7
2016-Jun-17 07:33N 55°16' E 012°44'5 5.4
2016-Jun-17 06:33N 55°21' E 012°38'8 7.8
2016-Jun-17 05:33N 55°28' E 012°41'8 7.9
2016-Jun-17 04:33N 55°36' E 012°42'8 8.1
2016-Jun-17 03:33N 55°44' E 012°41'8 7.7
2016-Jun-17 02:33N 55°52' E 012°39'8 7.7
2016-Jun-17 01:33N 55°60' E 012°38'7 6.6
2016-Jun-17 00:33N 56°06' E 012°33'8 8.0
2016-Jun-16 23:33N 56°10' E 012°21'86 7.5
2016-Jun-16 12:09N 56°59' E 010°13'5 8.2
2016-Jun-16 11:33N 57°02' E 010°06'6 6.2
2016-Jun-16 10:33N 57°03' E 009°55'1 0.7
2016-Jun-16 09:22N 57°04' E 009°54'0 0.0
2016-Jun-16 08:28N 57°04' E 009°54'0 0.1
2016-Jun-16 07:33N 57°04' E 009°54'0 0.1
2016-Jun-16 06:30N 57°04' E 009°53'0 0.2
2016-Jun-16 04:27N 57°04' E 009°53'3 3.3
2016-Jun-16 03:32N 57°04' E 009°47'  
2016-Jun-13 03:34N 57°04' E 009°45'6 6.5
2016-Jun-13 02:33N 57°03' E 009°57'3 3.2
2016-Jun-13 01:33N 57°04' E 010°03'6 5.5
2016-Jun-13 00:33N 57°00' E 010°10'77 6.2
2016-Jun-12 12:09N 56°17' E 012°08'4 6.0
2016-Jun-12 11:31N 56°15' E 012°13'6 6.0
2016-Jun-12 10:33N 56°12' E 012°22'6 6.2
2016-Jun-12 09:34N 56°08' E 012°31'8 7.9
2016-Jun-12 08:33N 56°02' E 012°40'6 6.0
2016-Jun-12 07:34N 55°56' E 012°43'6 5.8
2016-Jun-12 06:34N 55°51' E 012°43'14 6.8
2016-Jun-12 04:34N 55°37' E 012°42'7 7.0
2016-Jun-12 03:34N 55°30' E 012°43'  
Track history (hours):
 
Tides and Currents Weather Stations Pressure Air Temp Water Temp Dewpoint Dewpoint Depression Visibility Wind Speed Wind Dir Waves Ship Positions

Omskiy-141

Last reported at 2016-Jun-22 02:33 UTC. Time now 2016-Jun-25 05:19 UTC.
Position N 59°47' E 030°42'.

Length 108 m; draft 2.9 m.

Type: Cargo ship. MMSI: 273310600.

Date/timePositionNaut miles runAvg speedWind from/ knotsBaromVisibWave heightAir tempDewpointWater temp
2016-Jun-22 02:33N 59°47' E 030°42'5 5.1
2016-Jun-22 01:33N 59°50' E 030°34'5 4.7
2016-Jun-22 00:33N 59°53' E 030°27'3 3.3
2016-Jun-21 23:33N 59°56' E 030°24'3 3.3
2016-Jun-21 22:33N 59°56' E 030°17'3 3.1
2016-Jun-21 21:32N 59°54' E 030°13'0 0.0
2016-Jun-21 20:32N 59°54' E 030°13'0 0.0
2016-Jun-21 19:32N 59°54' E 030°13'0 0.0
2016-Jun-21 18:33N 59°54' E 030°13'0 0.0
2016-Jun-21 17:33N 59°54' E 030°13'0 0.0
2016-Jun-21 16:33N 59°54' E 030°13'0 0.0
2016-Jun-21 15:33N 59°54' E 030°13'0 0.0
2016-Jun-21 14:33N 59°54' E 030°13'0 0.0
2016-Jun-21 13:33N 59°54' E 030°13'0 0.0
2016-Jun-21 12:30N 59°54' E 030°13'0 0.0
2016-Jun-21 11:33N 59°54' E 030°13'0 0.0
2016-Jun-21 10:33N 59°54' E 030°13'0 0.0
2016-Jun-21 09:33N 59°54' E 030°13'1 1.3
2016-Jun-21 08:33N 59°55' E 030°14'6 6.3
2016-Jun-21 07:33N 59°55' E 030°01'36 2.4
2016-Jun-20 16:33N 60°02' E 028°50'8 7.8
2016-Jun-20 15:33N 60°02' E 028°35'7 7.3
2016-Jun-20 14:33N 60°04' E 028°21'8 7.6
2016-Jun-20 13:33N 60°08' E 028°07'8 7.7
2016-Jun-20 12:33N 60°10' E 027°52'8 7.4
2016-Jun-20 11:32N 60°08' E 027°38'8 7.9
2016-Jun-20 10:32N 60°03' E 027°25'23 7.4
2016-Jun-20 07:28N 59°59' E 026°40'63 8.0
2016-Jun-19 23:33N 59°44' E 024°37'35 7.9
2016-Jun-19 19:06N 59°33' E 023°31'5 8.3
2016-Jun-19 18:27N 59°32' E 023°21'348 7.6
2016-Jun-17 20:25N 55°36' E 015°23'7 7.7
2016-Jun-17 19:33N 55°33' E 015°13'8 7.8
2016-Jun-17 18:33N 55°29' E 015°01'8 7.9
2016-Jun-17 17:33N 55°25' E 014°48'8 8.1
2016-Jun-17 16:33N 55°21' E 014°36'8 8.4
2016-Jun-17 15:33N 55°15' E 014°26'8 8.0
2016-Jun-17 14:33N 55°09' E 014°16'8 7.6
2016-Jun-17 13:33N 55°09' E 014°03'7 7.5
2016-Jun-17 12:33N 55°09' E 013°50'10 7.7
2016-Jun-17 11:17N 55°10' E 013°33'7 7.8
2016-Jun-17 10:22N 55°11' E 013°21'6 7.8
2016-Jun-17 09:33N 55°11' E 013°09'8 7.8
2016-Jun-17 08:33N 55°14' E 012°56'8 7.7
2016-Jun-17 07:33N 55°16' E 012°44'5 5.4
2016-Jun-17 06:33N 55°21' E 012°38'8 7.8
2016-Jun-17 05:33N 55°28' E 012°41'8 7.9
2016-Jun-17 04:33N 55°36' E 012°42'8 8.1
2016-Jun-17 03:33N 55°44' E 012°41'8 7.7
2016-Jun-17 02:33N 55°52' E 012°39'8 7.7
2016-Jun-17 01:33N 55°60' E 012°38'7 6.6
2016-Jun-17 00:33N 56°06' E 012°33'8 8.0
2016-Jun-16 23:33N 56°10' E 012°21'86 7.5
2016-Jun-16 12:09N 56°59' E 010°13'5 8.2
2016-Jun-16 11:33N 57°02' E 010°06'6 6.2
2016-Jun-16 10:33N 57°03' E 009°55'1 0.7
2016-Jun-16 09:22N 57°04' E 009°54'0 0.0
2016-Jun-16 08:28N 57°04' E 009°54'0 0.1
2016-Jun-16 07:33N 57°04' E 009°54'0 0.1
2016-Jun-16 06:30N 57°04' E 009°53'0 0.2
2016-Jun-16 04:27N 57°04' E 009°53'3 3.3
2016-Jun-16 03:32N 57°04' E 009°47'  
2016-Jun-13 03:34N 57°04' E 009°45'6 6.5
2016-Jun-13 02:33N 57°03' E 009°57'3 3.2
2016-Jun-13 01:33N 57°04' E 010°03'6 5.5
2016-Jun-13 00:33N 57°00' E 010°10'77 6.2
2016-Jun-12 12:09N 56°17' E 012°08'4 6.0
2016-Jun-12 11:31N 56°15' E 012°13'6 6.0
2016-Jun-12 10:33N 56°12' E 012°22'6 6.2
2016-Jun-12 09:34N 56°08' E 012°31'8 7.9
2016-Jun-12 08:33N 56°02' E 012°40'6 6.0
2016-Jun-12 07:34N 55°56' E 012°43'6 5.8
2016-Jun-12 06:34N 55°51' E 012°43'14 6.8
2016-Jun-12 04:34N 55°37' E 012°42'7 7.0
2016-Jun-12 03:34N 55°30' E 012°43'  

Dump ship's entire track history